sensor_id;sensor_type;location;lat;lon;timestamp;pressure;altitude;pressure_sealevel;temperature;humidity
46464;BME280;32161;48.148;-1.554;2023-04-07T00:01:45;101339.53;;;7.76;88.90
46464;BME280;32161;48.148;-1.554;2023-04-07T00:04:12;101335.38;;;7.73;87.39
46464;BME280;32161;48.148;-1.554;2023-04-07T00:06:40;101330.34;;;7.70;86.54
46464;BME280;32161;48.148;-1.554;2023-04-07T00:09:08;101324.94;;;7.70;84.40
46464;BME280;32161;48.148;-1.554;2023-04-07T00:11:36;101334.31;;;7.74;83.10
46464;BME280;32161;48.148;-1.554;2023-04-07T00:14:04;101331.03;;;7.79;82.67
46464;BME280;32161;48.148;-1.554;2023-04-07T00:16:32;101325.00;;;7.77;81.44
46464;BME280;32161;48.148;-1.554;2023-04-07T00:19:01;101330.19;;;7.78;82.48
46464;BME280;32161;48.148;-1.554;2023-04-07T00:21:28;101322.91;;;7.79;82.59
46464;BME280;32161;48.148;-1.554;2023-04-07T00:23:56;101322.06;;;7.78;82.91
46464;BME280;32161;48.148;-1.554;2023-04-07T00:26:24;101323.13;;;7.77;83.82
46464;BME280;32161;48.148;-1.554;2023-04-07T00:28:54;101316.59;;;7.72;83.36
46464;BME280;32161;48.148;-1.554;2023-04-07T00:31:21;101315.72;;;7.65;83.43
46464;BME280;32161;48.148;-1.554;2023-04-07T00:33:49;101310.72;;;7.62;83.22
46464;BME280;32161;48.148;-1.554;2023-04-07T00:36:18;101316.97;;;7.62;84.43
46464;BME280;32161;48.148;-1.554;2023-04-07T00:38:46;101310.66;;;7.55;84.91
46464;BME280;32161;48.148;-1.554;2023-04-07T00:41:13;101324.97;;;7.49;85.92
46464;BME280;32161;48.148;-1.554;2023-04-07T00:43:41;101313.91;;;7.44;86.30
46464;BME280;32161;48.148;-1.554;2023-04-07T00:46:09;101310.06;;;7.31;85.98
46464;BME280;32161;48.148;-1.554;2023-04-07T00:48:36;101308.31;;;7.24;86.16
46464;BME280;32161;48.148;-1.554;2023-04-07T00:51:04;101300.97;;;7.18;86.75
46464;BME280;32161;48.148;-1.554;2023-04-07T00:53:34;101306.78;;;7.15;86.10
46464;BME280;32161;48.148;-1.554;2023-04-07T00:56:02;101304.06;;;7.15;84.87
46464;BME280;32161;48.148;-1.554;2023-04-07T00:58:29;101311.16;;;7.16;83.86
46464;BME280;32161;48.148;-1.554;2023-04-07T01:01:06;101298.28;;;7.18;82.85
46464;BME280;32161;48.148;-1.554;2023-04-07T01:03:40;101304.34;;;7.20;83.40
46464;BME280;32161;48.148;-1.554;2023-04-07T01:06:13;101300.41;;;7.22;83.18
46464;BME280;32161;48.148;-1.554;2023-04-07T01:08:50;101309.38;;;7.23;82.60
46464;BME280;32161;48.148;-1.554;2023-04-07T01:11:24;101311.66;;;7.26;82.49
46464;BME280;32161;48.148;-1.554;2023-04-07T01:13:54;101306.91;;;7.28;82.41
46464;BME280;32161;48.148;-1.554;2023-04-07T01:16:26;101314.56;;;7.24;82.08
46464;BME280;32161;48.148;-1.554;2023-04-07T01:19:00;101309.38;;;7.23;82.02
46464;BME280;32161;48.148;-1.554;2023-04-07T01:21:33;101309.16;;;7.24;82.15
46464;BME280;32161;48.148;-1.554;2023-04-07T01:24:25;101305.63;;;7.24;80.62
46464;BME280;32161;48.148;-1.554;2023-04-07T01:26:57;101306.25;;;7.26;80.76
46464;BME280;32161;48.148;-1.554;2023-04-07T01:29:37;101303.69;;;7.18;82.16
46464;BME280;32161;48.148;-1.554;2023-04-07T01:32:06;101318.13;;;7.03;81.87
46464;BME280;32161;48.148;-1.554;2023-04-07T01:34:36;101319.34;;;7.01;84.46
46464;BME280;32161;48.148;-1.554;2023-04-07T01:37:06;101319.38;;;6.86;85.22
46464;BME280;32161;48.148;-1.554;2023-04-07T01:39:35;101319.59;;;6.84;85.63
46464;BME280;32161;48.148;-1.554;2023-04-07T01:42:04;101317.84;;;6.77;85.90
46464;BME280;32161;48.148;-1.554;2023-04-07T01:44:34;101323.16;;;6.70;87.03
46464;BME280;32161;48.148;-1.554;2023-04-07T01:47:03;101321.59;;;6.61;87.76
46464;BME280;32161;48.148;-1.554;2023-04-07T01:49:31;101312.97;;;6.51;88.17
46464;BME280;32161;48.148;-1.554;2023-04-07T01:52:00;101313.91;;;6.43;88.64
46464;BME280;32161;48.148;-1.554;2023-04-07T01:54:29;101317.00;;;6.40;88.78
46464;BME280;32161;48.148;-1.554;2023-04-07T01:56:56;101315.78;;;6.43;88.20
46464;BME280;32161;48.148;-1.554;2023-04-07T01:59:24;101316.88;;;6.48;86.75
46464;BME280;32161;48.148;-1.554;2023-04-07T02:01:53;101318.84;;;6.54;85.62
46464;BME280;32161;48.148;-1.554;2023-04-07T02:04:29;101307.25;;;6.60;84.87
46464;BME280;32161;48.148;-1.554;2023-04-07T02:07:05;101310.63;;;6.63;83.35
46464;BME280;32161;48.148;-1.554;2023-04-07T02:09:38;101316.00;;;6.63;82.60
46464;BME280;32161;48.148;-1.554;2023-04-07T02:12:10;101317.06;;;6.62;83.86
46464;BME280;32161;48.148;-1.554;2023-04-07T02:14:39;101315.56;;;6.59;84.52
46464;BME280;32161;48.148;-1.554;2023-04-07T02:17:08;101324.88;;;6.56;85.54
46464;BME280;32161;48.148;-1.554;2023-04-07T02:19:37;101322.56;;;6.53;86.24
46464;BME280;32161;48.148;-1.554;2023-04-07T02:22:05;101323.50;;;6.46;86.60
46464;BME280;32161;48.148;-1.554;2023-04-07T02:24:33;101328.09;;;6.30;86.34
46464;BME280;32161;48.148;-1.554;2023-04-07T02:27:00;101327.34;;;6.22;86.39
46464;BME280;32161;48.148;-1.554;2023-04-07T02:29:28;101330.81;;;6.16;86.14
46464;BME280;32161;48.148;-1.554;2023-04-07T02:31:56;101328.72;;;6.03;86.62
46464;BME280;32161;48.148;-1.554;2023-04-07T02:34:25;101330.97;;;5.99;87.07
46464;BME280;32161;48.148;-1.554;2023-04-07T02:36:52;101335.25;;;5.94;88.14
46464;BME280;32161;48.148;-1.554;2023-04-07T02:39:20;101336.09;;;5.94;89.29
46464;BME280;32161;48.148;-1.554;2023-04-07T02:41:47;101332.75;;;5.92;90.06
46464;BME280;32161;48.148;-1.554;2023-04-07T02:44:15;101327.16;;;5.94;90.61
46464;BME280;32161;48.148;-1.554;2023-04-07T02:46:42;101328.66;;;5.96;90.16
46464;BME280;32161;48.148;-1.554;2023-04-07T02:49:10;101330.50;;;5.96;89.40
46464;BME280;32161;48.148;-1.554;2023-04-07T02:51:39;101331.53;;;5.95;90.43
46464;BME280;32161;48.148;-1.554;2023-04-07T02:54:07;101333.03;;;5.97;91.66
46464;BME280;32161;48.148;-1.554;2023-04-07T02:56:34;101328.66;;;5.96;92.95
46464;BME280;32161;48.148;-1.554;2023-04-07T02:59:02;101322.25;;;5.97;92.86
46464;BME280;32161;48.148;-1.554;2023-04-07T03:01:29;101325.19;;;6.02;92.58
46464;BME280;32161;48.148;-1.554;2023-04-07T03:03:58;101322.88;;;6.14;93.75
46464;BME280;32161;48.148;-1.554;2023-04-07T03:06:25;101320.28;;;6.21;92.45
46464;BME280;32161;48.148;-1.554;2023-04-07T03:08:54;101321.84;;;6.30;88.64
46464;BME280;32161;48.148;-1.554;2023-04-07T03:11:22;101325.56;;;6.29;86.14
46464;BME280;32161;48.148;-1.554;2023-04-07T03:13:50;101325.66;;;6.21;85.54
46464;BME280;32161;48.148;-1.554;2023-04-07T03:16:17;101319.72;;;6.10;85.06
46464;BME280;32161;48.148;-1.554;2023-04-07T03:18:45;101325.97;;;5.96;85.17
46464;BME280;32161;48.148;-1.554;2023-04-07T03:21:12;101322.94;;;5.91;85.99
46464;BME280;32161;48.148;-1.554;2023-04-07T03:23:40;101325.63;;;5.91;86.59
46464;BME280;32161;48.148;-1.554;2023-04-07T03:26:09;101327.38;;;5.84;86.81
46464;BME280;32161;48.148;-1.554;2023-04-07T03:28:36;101322.28;;;5.74;87.58
46464;BME280;32161;48.148;-1.554;2023-04-07T03:31:04;101325.34;;;5.71;87.23
46464;BME280;32161;48.148;-1.554;2023-04-07T03:33:32;101324.31;;;5.72;86.73
46464;BME280;32161;48.148;-1.554;2023-04-07T03:36:00;101318.09;;;5.72;86.79
46464;BME280;32161;48.148;-1.554;2023-04-07T03:38:28;101314.66;;;5.78;87.65
46464;BME280;32161;48.148;-1.554;2023-04-07T03:40:55;101311.03;;;5.85;90.26
46464;BME280;32161;48.148;-1.554;2023-04-07T03:43:24;101304.75;;;5.93;93.20
46464;BME280;32161;48.148;-1.554;2023-04-07T03:45:52;101304.75;;;6.08;95.45
46464;BME280;32161;48.148;-1.554;2023-04-07T03:48:20;101305.84;;;6.14;96.99
46464;BME280;32161;48.148;-1.554;2023-04-07T03:50:48;101303.78;;;5.86;100.00
46464;BME280;32161;48.148;-1.554;2023-04-07T03:53:16;101306.84;;;5.83;100.00
46464;BME280;32161;48.148;-1.554;2023-04-07T03:55:44;101305.28;;;6.03;100.00
46464;BME280;32161;48.148;-1.554;2023-04-07T03:58:12;101301.13;;;6.16;100.00
46464;BME280;32161;48.148;-1.554;2023-04-07T04:00:41;101310.09;;;6.38;100.00
46464;BME280;32161;48.148;-1.554;2023-04-07T04:03:09;101311.84;;;6.45;100.00
46464;BME280;32161;48.148;-1.554;2023-04-07T04:05:37;101307.19;;;6.54;100.00
46464;BME280;32161;48.148;-1.554;2023-04-07T04:08:06;101312.28;;;6.64;100.00
46464;BME280;32161;48.148;-1.554;2023-04-07T04:10:33;101314.97;;;6.64;98.25
46464;BME280;32161;48.148;-1.554;2023-04-07T04:13:01;101315.19;;;6.62;95.38
46464;BME280;32161;48.148;-1.554;2023-04-07T04:15:31;101316.75;;;6.56;91.96
46464;BME280;32161;48.148;-1.554;2023-04-07T04:18:00;101321.41;;;6.63;91.61
46464;BME280;32161;48.148;-1.554;2023-04-07T04:20:28;101313.81;;;6.51;90.92
46464;BME280;32161;48.148;-1.554;2023-04-07T04:22:55;101311.22;;;6.43;92.13
46464;BME280;32161;48.148;-1.554;2023-04-07T04:25:23;101309.94;;;6.39;92.76
46464;BME280;32161;48.148;-1.554;2023-04-07T04:27:51;101321.34;;;6.41;93.84
46464;BME280;32161;48.148;-1.554;2023-04-07T04:30:20;101314.28;;;6.40;94.27
46464;BME280;32161;48.148;-1.554;2023-04-07T04:32:47;101313.47;;;6.40;95.40
46464;BME280;32161;48.148;-1.554;2023-04-07T04:35:17;101314.56;;;6.45;96.07
46464;BME280;32161;48.148;-1.554;2023-04-07T04:37:44;101314.19;;;6.48;96.01
46464;BME280;32161;48.148;-1.554;2023-04-07T04:40:12;101320.69;;;6.54;97.27
46464;BME280;32161;48.148;-1.554;2023-04-07T04:42:40;101307.66;;;6.57;96.82
46464;BME280;32161;48.148;-1.554;2023-04-07T04:45:09;101316.00;;;6.63;96.57
46464;BME280;32161;48.148;-1.554;2023-04-07T04:47:36;101306.97;;;6.70;97.73
46464;BME280;32161;48.148;-1.554;2023-04-07T04:50:06;101305.56;;;6.74;97.68
46464;BME280;32161;48.148;-1.554;2023-04-07T04:52:35;101312.44;;;6.77;97.51
46464;BME280;32161;48.148;-1.554;2023-04-07T04:55:05;101312.03;;;6.80;96.87
46464;BME280;32161;48.148;-1.554;2023-04-07T04:57:33;101313.31;;;6.84;97.70
46464;BME280;32161;48.148;-1.554;2023-04-07T05:00:01;101315.28;;;6.90;98.27
46464;BME280;32161;48.148;-1.554;2023-04-07T05:02:29;101311.53;;;6.91;98.04
46464;BME280;32161;48.148;-1.554;2023-04-07T05:04:57;101316.94;;;6.91;97.66
46464;BME280;32161;48.148;-1.554;2023-04-07T05:07:24;101318.34;;;6.87;96.67
46464;BME280;32161;48.148;-1.554;2023-04-07T05:09:53;101322.09;;;6.86;96.26
46464;BME280;32161;48.148;-1.554;2023-04-07T05:12:21;101324.34;;;6.82;96.33
46464;BME280;32161;48.148;-1.554;2023-04-07T05:14:49;101332.00;;;6.79;96.72
46464;BME280;32161;48.148;-1.554;2023-04-07T05:17:16;101318.31;;;6.80;97.36
46464;BME280;32161;48.148;-1.554;2023-04-07T05:19:44;101319.13;;;6.81;97.38
46464;BME280;32161;48.148;-1.554;2023-04-07T05:22:12;101326.84;;;6.84;98.18
46464;BME280;32161;48.148;-1.554;2023-04-07T05:24:39;101323.97;;;6.85;98.05
46464;BME280;32161;48.148;-1.554;2023-04-07T05:27:08;101324.59;;;6.88;97.96
46464;BME280;32161;48.148;-1.554;2023-04-07T05:29:36;101333.56;;;6.88;97.20
46464;BME280;32161;48.148;-1.554;2023-04-07T05:32:04;101335.03;;;6.91;98.12
46464;BME280;32161;48.148;-1.554;2023-04-07T05:34:32;101333.59;;;6.95;97.35
46464;BME280;32161;48.148;-1.554;2023-04-07T05:37:00;101336.91;;;6.90;96.75
46464;BME280;32161;48.148;-1.554;2023-04-07T05:39:27;101343.34;;;6.89;97.32
46464;BME280;32161;48.148;-1.554;2023-04-07T05:41:55;101338.09;;;6.88;97.40
46464;BME280;32161;48.148;-1.554;2023-04-07T05:44:24;101339.97;;;6.87;97.03
46464;BME280;32161;48.148;-1.554;2023-04-07T05:46:52;101338.75;;;6.90;97.05
46464;BME280;32161;48.148;-1.554;2023-04-07T05:49:19;101339.59;;;6.90;96.22
46464;BME280;32161;48.148;-1.554;2023-04-07T05:51:47;101335.69;;;6.93;96.08
46464;BME280;32161;48.148;-1.554;2023-04-07T05:54:14;101339.59;;;6.90;96.66
46464;BME280;32161;48.148;-1.554;2023-04-07T05:56:42;101336.69;;;6.92;96.31
46464;BME280;32161;48.148;-1.554;2023-04-07T05:59:10;101341.47;;;6.90;96.13
46464;BME280;32161;48.148;-1.554;2023-04-07T06:01:39;101339.38;;;6.92;96.19
46464;BME280;32161;48.148;-1.554;2023-04-07T06:04:06;101340.88;;;6.94;96.32
46464;BME280;32161;48.148;-1.554;2023-04-07T06:06:34;101331.28;;;6.92;96.78
46464;BME280;32161;48.148;-1.554;2023-04-07T06:09:01;101343.97;;;6.91;96.79
46464;BME280;32161;48.148;-1.554;2023-04-07T06:11:29;101346.88;;;6.90;96.86
46464;BME280;32161;48.148;-1.554;2023-04-07T06:13:56;101352.28;;;6.90;96.73
46464;BME280;32161;48.148;-1.554;2023-04-07T06:16:24;101351.69;;;6.94;96.55
46464;BME280;32161;48.148;-1.554;2023-04-07T06:18:53;101355.88;;;6.97;96.92
46464;BME280;32161;48.148;-1.554;2023-04-07T06:21:21;101356.34;;;7.00;96.87
46464;BME280;32161;48.148;-1.554;2023-04-07T06:23:49;101352.59;;;7.01;96.45
46464;BME280;32161;48.148;-1.554;2023-04-07T06:26:16;101360.34;;;7.04;95.72
46464;BME280;32161;48.148;-1.554;2023-04-07T06:28:44;101359.44;;;6.97;95.38
46464;BME280;32161;48.148;-1.554;2023-04-07T06:31:11;101366.88;;;6.95;96.00
46464;BME280;32161;48.148;-1.554;2023-04-07T06:33:39;101363.16;;;6.96;97.10
46464;BME280;32161;48.148;-1.554;2023-04-07T06:36:08;101360.47;;;6.96;97.30
46464;BME280;32161;48.148;-1.554;2023-04-07T06:38:36;101366.13;;;7.01;97.36
46464;BME280;32161;48.148;-1.554;2023-04-07T06:41:03;101369.88;;;7.00;97.88
46464;BME280;32161;48.148;-1.554;2023-04-07T06:43:31;101377.00;;;7.08;97.79
46464;BME280;32161;48.148;-1.554;2023-04-07T06:45:59;101380.09;;;7.05;97.14
46464;BME280;32161;48.148;-1.554;2023-04-07T06:48:26;101381.19;;;7.10;97.43
46464;BME280;32161;48.148;-1.554;2023-04-07T06:50:54;101372.53;;;7.15;98.00
46464;BME280;32161;48.148;-1.554;2023-04-07T06:53:23;101368.19;;;7.21;98.06
46464;BME280;32161;48.148;-1.554;2023-04-07T06:55:50;101379.91;;;7.28;97.77
46464;BME280;32161;48.148;-1.554;2023-04-07T06:58:18;101385.56;;;7.33;96.61
46464;BME280;32161;48.148;-1.554;2023-04-07T07:00:45;101378.13;;;7.35;96.54
46464;BME280;32161;48.148;-1.554;2023-04-07T07:03:13;101379.53;;;7.31;96.03
46464;BME280;32161;48.148;-1.554;2023-04-07T07:05:41;101382.03;;;7.32;96.40
46464;BME280;32161;48.148;-1.554;2023-04-07T07:08:09;101381.81;;;7.34;96.78
46464;BME280;32161;48.148;-1.554;2023-04-07T07:10:38;101391.88;;;7.40;97.13
46464;BME280;32161;48.148;-1.554;2023-04-07T07:13:05;101396.56;;;7.53;96.92
46464;BME280;32161;48.148;-1.554;2023-04-07T07:15:33;101396.78;;;7.51;96.14
46464;BME280;32161;48.148;-1.554;2023-04-07T07:18:00;101388.06;;;7.56;95.44
46464;BME280;32161;48.148;-1.554;2023-04-07T07:20:28;101389.56;;;7.58;95.19
46464;BME280;32161;48.148;-1.554;2023-04-07T07:22:56;101385.81;;;7.59;96.06
46464;BME280;32161;48.148;-1.554;2023-04-07T07:25:23;101384.84;;;7.67;96.26
46464;BME280;32161;48.148;-1.554;2023-04-07T07:27:53;101394.25;;;7.71;96.58
46464;BME280;32161;48.148;-1.554;2023-04-07T07:30:22;101391.66;;;7.85;97.36
46464;BME280;32161;48.148;-1.554;2023-04-07T07:32:50;101387.53;;;7.89;96.27
46464;BME280;32161;48.148;-1.554;2023-04-07T07:35:19;101400.06;;;7.96;96.26
46464;BME280;32161;48.148;-1.554;2023-04-07T07:37:46;101385.94;;;8.01;95.59
46464;BME280;32161;48.148;-1.554;2023-04-07T07:40:14;101397.66;;;8.08;96.42
46464;BME280;32161;48.148;-1.554;2023-04-07T07:42:42;101398.09;;;8.12;96.25
46464;BME280;32161;48.148;-1.554;2023-04-07T07:45:11;101395.19;;;8.13;96.51
46464;BME280;32161;48.148;-1.554;2023-04-07T07:47:39;101392.91;;;8.17;95.73
46464;BME280;32161;48.148;-1.554;2023-04-07T07:50:08;101403.16;;;8.21;96.54
46464;BME280;32161;48.148;-1.554;2023-04-07T07:52:35;101398.19;;;8.25;96.65
46464;BME280;32161;48.148;-1.554;2023-04-07T07:55:04;101395.06;;;8.28;96.42
46464;BME280;32161;48.148;-1.554;2023-04-07T07:57:31;101396.44;;;8.39;96.97
46464;BME280;32161;48.148;-1.554;2023-04-07T07:59:59;101390.84;;;8.47;96.26
46464;BME280;32161;48.148;-1.554;2023-04-07T08:02:28;101400.03;;;8.52;96.80
46464;BME280;32161;48.148;-1.554;2023-04-07T08:04:56;101398.34;;;8.51;97.17
46464;BME280;32161;48.148;-1.554;2023-04-07T08:07:25;101397.16;;;8.61;98.23
46464;BME280;32161;48.148;-1.554;2023-04-07T08:09:53;101393.03;;;8.71;98.09
46464;BME280;32161;48.148;-1.554;2023-04-07T08:12:21;101398.53;;;8.85;98.84
46464;BME280;32161;48.148;-1.554;2023-04-07T08:14:48;101395.59;;;8.86;98.16
46464;BME280;32161;48.148;-1.554;2023-04-07T08:17:16;101403.94;;;8.91;98.81
46464;BME280;32161;48.148;-1.554;2023-04-07T08:19:45;101406.50;;;8.99;98.87
46464;BME280;32161;48.148;-1.554;2023-04-07T08:22:13;101391.69;;;9.02;98.45
46464;BME280;32161;48.148;-1.554;2023-04-07T08:24:41;101397.94;;;9.02;98.35
46464;BME280;32161;48.148;-1.554;2023-04-07T08:27:08;101405.88;;;9.11;97.84
46464;BME280;32161;48.148;-1.554;2023-04-07T08:29:36;101399.66;;;9.17;98.30
46464;BME280;32161;48.148;-1.554;2023-04-07T08:32:04;101404.47;;;9.28;99.95
46464;BME280;32161;48.148;-1.554;2023-04-07T08:34:31;101398.25;;;9.54;98.35
46464;BME280;32161;48.148;-1.554;2023-04-07T08:37:00;101411.63;;;9.56;99.59
46464;BME280;32161;48.148;-1.554;2023-04-07T08:39:28;101409.31;;;9.79;98.51
46464;BME280;32161;48.148;-1.554;2023-04-07T08:41:56;101406.81;;;9.91;97.03
46464;BME280;32161;48.148;-1.554;2023-04-07T08:44:25;101411.22;;;9.85;95.09
46464;BME280;32161;48.148;-1.554;2023-04-07T08:46:57;101407.88;;;9.83;95.46
46464;BME280;32161;48.148;-1.554;2023-04-07T08:49:27;101397.63;;;9.78;96.58
46464;BME280;32161;48.148;-1.554;2023-04-07T08:51:57;101404.53;;;9.94;96.69
46464;BME280;32161;48.148;-1.554;2023-04-07T08:54:27;101398.28;;;9.81;93.71
46464;BME280;32161;48.148;-1.554;2023-04-07T08:56:55;101403.69;;;9.87;93.97
46464;BME280;32161;48.148;-1.554;2023-04-07T08:59:23;101406.84;;;10.04;91.58
46464;BME280;32161;48.148;-1.554;2023-04-07T09:01:54;101401.81;;;10.27;88.92
46464;BME280;32161;48.148;-1.554;2023-04-07T09:04:22;101400.94;;;10.20;88.31
46464;BME280;32161;48.148;-1.554;2023-04-07T09:06:50;101400.34;;;10.25;88.54
46464;BME280;32161;48.148;-1.554;2023-04-07T09:09:18;101404.53;;;10.27;88.97
46464;BME280;32161;48.148;-1.554;2023-04-07T09:11:48;101402.59;;;10.41;88.78
46464;BME280;32161;48.148;-1.554;2023-04-07T09:14:16;101403.22;;;10.50;88.11
46464;BME280;32161;48.148;-1.554;2023-04-07T09:16:46;101405.47;;;10.60;86.67
46464;BME280;32161;48.148;-1.554;2023-04-07T09:19:13;101406.94;;;10.69;87.20
46464;BME280;32161;48.148;-1.554;2023-04-07T09:21:48;101407.28;;;10.79;86.13
46464;BME280;32161;48.148;-1.554;2023-04-07T09:24:24;101414.28;;;11.07;83.63
46464;BME280;32161;48.148;-1.554;2023-04-07T09:27:09;101408.66;;;11.02;83.27
46464;BME280;32161;48.148;-1.554;2023-04-07T09:29:37;101403.63;;;11.05;83.26
46464;BME280;32161;48.148;-1.554;2023-04-07T09:32:05;101419.69;;;11.13;84.24
46464;BME280;32161;48.148;-1.554;2023-04-07T09:34:35;101415.44;;;11.24;83.12
46464;BME280;32161;48.148;-1.554;2023-04-07T09:37:05;101422.03;;;11.41;85.17
46464;BME280;32161;48.148;-1.554;2023-04-07T09:39:48;101420.06;;;11.55;83.06
46464;BME280;32161;48.148;-1.554;2023-04-07T09:42:18;101427.88;;;11.77;80.04
46464;BME280;32161;48.148;-1.554;2023-04-07T09:44:46;101428.03;;;11.82;77.92
46464;BME280;32161;48.148;-1.554;2023-04-07T09:47:14;101433.69;;;11.87;79.36
46464;BME280;32161;48.148;-1.554;2023-04-07T09:49:51;101434.84;;;11.97;80.35
46464;BME280;32161;48.148;-1.554;2023-04-07T09:52:22;101430.97;;;12.12;80.38
46464;BME280;32161;48.148;-1.554;2023-04-07T09:54:50;101431.22;;;12.29;79.33
46464;BME280;32161;48.148;-1.554;2023-04-07T09:57:20;101429.78;;;12.44;80.27
46464;BME280;32161;48.148;-1.554;2023-04-07T09:59:51;101429.22;;;12.61;78.46
46464;BME280;32161;48.148;-1.554;2023-04-07T10:02:21;101431.00;;;12.67;78.03
46464;BME280;32161;48.148;-1.554;2023-04-07T10:04:49;101436.53;;;12.79;76.51
46464;BME280;32161;48.148;-1.554;2023-04-07T10:07:16;101429.03;;;12.92;72.80
46464;BME280;32161;48.148;-1.554;2023-04-07T10:09:44;101424.78;;;12.97;74.72
46464;BME280;32161;48.148;-1.554;2023-04-07T10:12:12;101424.72;;;13.03;73.67
46464;BME280;32161;48.148;-1.554;2023-04-07T10:14:42;101429.59;;;13.13;73.69
46464;BME280;32161;48.148;-1.554;2023-04-07T10:17:13;101421.28;;;13.26;72.84
46464;BME280;32161;48.148;-1.554;2023-04-07T10:19:45;101421.63;;;13.30;70.53
46464;BME280;32161;48.148;-1.554;2023-04-07T10:22:14;101414.34;;;13.42;71.04
46464;BME280;32161;48.148;-1.554;2023-04-07T10:24:53;101412.69;;;13.53;71.12
46464;BME280;32161;48.148;-1.554;2023-04-07T10:27:32;101412.94;;;13.63;69.09
46464;BME280;32161;48.148;-1.554;2023-04-07T10:30:04;101417.50;;;13.69;66.11
46464;BME280;32161;48.148;-1.554;2023-04-07T10:32:45;101405.94;;;13.67;66.08
46464;BME280;32161;48.148;-1.554;2023-04-07T10:35:14;101406.22;;;13.77;66.30
46464;BME280;32161;48.148;-1.554;2023-04-07T10:38:11;101396.97;;;13.90;67.68
46464;BME280;32161;48.148;-1.554;2023-04-07T10:40:41;101403.16;;;14.09;65.08
46464;BME280;32161;48.148;-1.554;2023-04-07T10:43:09;101398.28;;;13.99;66.85
46464;BME280;32161;48.148;-1.554;2023-04-07T10:45:57;101400.88;;;14.06;61.74
46464;BME280;32161;48.148;-1.554;2023-04-07T10:48:27;101382.25;;;14.14;61.92
46464;BME280;32161;48.148;-1.554;2023-04-07T10:51:21;101401.38;;;14.26;61.21
46464;BME280;32161;48.148;-1.554;2023-04-07T10:54:22;101394.56;;;14.29;59.01
46464;BME280;32161;48.148;-1.554;2023-04-07T10:57:11;101390.19;;;14.28;61.75
46464;BME280;32161;48.148;-1.554;2023-04-07T11:00:16;101388.06;;;14.30;59.83
46464;BME280;32161;48.148;-1.554;2023-04-07T11:02:45;101391.28;;;14.27;61.40
46464;BME280;32161;48.148;-1.554;2023-04-07T11:05:21;101378.84;;;14.48;59.44
46464;BME280;32161;48.148;-1.554;2023-04-07T11:07:53;101381.88;;;14.34;60.71
46464;BME280;32161;48.148;-1.554;2023-04-07T11:10:27;101376.38;;;14.58;58.04
46464;BME280;32161;48.148;-1.554;2023-04-07T11:13:04;101373.38;;;14.48;61.79
46464;BME280;32161;48.148;-1.554;2023-04-07T11:15:34;101378.84;;;14.48;61.44
46464;BME280;32161;48.148;-1.554;2023-04-07T11:18:20;101376.56;;;14.68;58.73
46464;BME280;32161;48.148;-1.554;2023-04-07T11:20:52;101372.19;;;14.67;60.19
46464;BME280;32161;48.148;-1.554;2023-04-07T11:23:21;101375.16;;;14.77;57.26
46464;BME280;32161;48.148;-1.554;2023-04-07T11:25:52;101374.06;;;14.78;58.61
46464;BME280;32161;48.148;-1.554;2023-04-07T11:28:20;101376.22;;;14.76;57.15
46464;BME280;32161;48.148;-1.554;2023-04-07T11:30:49;101373.94;;;14.85;56.18
46464;BME280;32161;48.148;-1.554;2023-04-07T11:33:20;101367.09;;;14.99;57.53
46464;BME280;32161;48.148;-1.554;2023-04-07T11:35:50;101370.53;;;14.95;60.49
46464;BME280;32161;48.148;-1.554;2023-04-07T11:38:18;101368.00;;;15.05;60.76
46464;BME280;32161;48.148;-1.554;2023-04-07T11:40:47;101369.19;;;15.09;60.49
46464;BME280;32161;48.148;-1.554;2023-04-07T11:43:20;101364.66;;;15.14;59.16
46464;BME280;32161;48.148;-1.554;2023-04-07T11:46:06;101363.25;;;15.29;59.97
46464;BME280;32161;48.148;-1.554;2023-04-07T11:48:37;101357.03;;;15.33;58.15
46464;BME280;32161;48.148;-1.554;2023-04-07T11:51:14;101349.31;;;15.47;56.26
46464;BME280;32161;48.148;-1.554;2023-04-07T11:53:42;101361.22;;;15.53;57.14
46464;BME280;32161;48.148;-1.554;2023-04-07T11:56:12;101363.50;;;15.44;58.41
46464;BME280;32161;48.148;-1.554;2023-04-07T11:58:47;101367.53;;;15.53;57.66
46464;BME280;32161;48.148;-1.554;2023-04-07T12:01:15;101356.25;;;15.67;56.04
46464;BME280;32161;48.148;-1.554;2023-04-07T12:03:57;101348.59;;;15.85;57.60
46464;BME280;32161;48.148;-1.554;2023-04-07T12:06:27;101349.94;;;16.00;57.71
46464;BME280;32161;48.148;-1.554;2023-04-07T12:08:56;101349.72;;;16.06;56.99
46464;BME280;32161;48.148;-1.554;2023-04-07T12:11:23;101346.06;;;16.18;56.49
46464;BME280;32161;48.148;-1.554;2023-04-07T12:13:51;101344.06;;;16.13;56.96
46464;BME280;32161;48.148;-1.554;2023-04-07T12:16:19;101340.91;;;16.21;56.27
46464;BME280;32161;48.148;-1.554;2023-04-07T12:18:48;101340.88;;;16.38;58.59
46464;BME280;32161;48.148;-1.554;2023-04-07T12:21:18;101338.19;;;16.43;55.96
46464;BME280;32161;48.148;-1.554;2023-04-07T12:23:49;101341.88;;;16.54;54.73
46464;BME280;32161;48.148;-1.554;2023-04-07T12:26:16;101339.06;;;16.49;55.76
46464;BME280;32161;48.148;-1.554;2023-04-07T12:28:44;101347.69;;;16.35;53.97
46464;BME280;32161;48.148;-1.554;2023-04-07T12:31:11;101340.47;;;16.29;58.23
46464;BME280;32161;48.148;-1.554;2023-04-07T12:33:39;101345.53;;;16.38;55.11
46464;BME280;32161;48.148;-1.554;2023-04-07T12:36:07;101338.44;;;16.42;55.88
46464;BME280;32161;48.148;-1.554;2023-04-07T12:38:36;101336.84;;;16.46;56.90
46464;BME280;32161;48.148;-1.554;2023-04-07T12:41:03;101334.94;;;16.68;53.86
46464;BME280;32161;48.148;-1.554;2023-04-07T12:43:32;101344.03;;;16.52;53.10
46464;BME280;32161;48.148;-1.554;2023-04-07T12:45:59;101335.13;;;16.40;51.90
46464;BME280;32161;48.148;-1.554;2023-04-07T12:48:27;101329.34;;;16.41;55.05
46464;BME280;32161;48.148;-1.554;2023-04-07T12:50:54;101327.19;;;16.43;53.29
46464;BME280;32161;48.148;-1.554;2023-04-07T12:53:22;101319.16;;;16.58;54.76
46464;BME280;32161;48.148;-1.554;2023-04-07T12:55:51;101315.81;;;16.56;53.58
46464;BME280;32161;48.148;-1.554;2023-04-07T12:58:18;101312.91;;;16.63;57.73
46464;BME280;32161;48.148;-1.554;2023-04-07T13:00:46;101316.00;;;16.72;53.27